Time;durP1;ratioP1;P1;durP2;ratioP2;P2;SDS_P1;SDS_P2;PMS_P1;PMS_P2;Temp;Humidity;BMP_temperature;BMP_pressure;BME280_temperature;BME280_humidity;BME280_pressure;Samples;Min_cycle;Max_cycle;Signal;HPM_P1;HPM_P2
2021/05/03 00:00:17;;;;;;;5.50;2.72;;;9.80;52.00;;;;;;5045220;28;20140;-68
2021/05/03 00:02:43;;;;;;;5.60;2.42;;;9.70;51.80;;;;;;5046529;28;20076;-67
2021/05/03 00:05:19;;;;;;;8.32;2.33;;;9.50;51.90;;;;;;5046143;28;20435;-67
2021/05/03 00:07:46;;;;;;;3.67;2.70;;;9.60;51.80;;;;;;5047328;28;20456;-67
2021/05/03 00:10:13;;;;;;;4.30;2.50;;;9.40;51.50;;;;;;5031081;28;20132;-67
2021/05/03 00:12:42;;;;;;;2.85;2.30;;;9.40;51.30;;;;;;5042683;28;20061;-68
2021/05/03 00:15:11;;;;;;;3.90;2.15;;;9.50;51.40;;;;;;5044909;28;20072;-67
2021/05/03 00:17:38;;;;;;;7.47;2.50;;;9.60;51.50;;;;;;5044292;28;20049;-67
2021/05/03 00:20:06;;;;;;;3.25;2.65;;;9.50;51.60;;;;;;5047327;28;20049;-67
2021/05/03 00:22:33;;;;;;;6.35;2.65;;;9.60;51.50;;;;;;5044408;28;20124;-68
2021/05/03 00:25:00;;;;;;;3.00;1.98;;;9.70;51.20;;;;;;5044795;28;20053;-67
2021/05/03 00:27:26;;;;;;;4.63;2.40;;;9.60;51.20;;;;;;5050580;28;20102;-67
2021/05/03 00:29:52;;;;;;;3.50;2.25;;;9.80;50.60;;;;;;5058528;28;20053;-67
2021/05/03 00:32:18;;;;;;;3.75;2.47;;;9.80;50.60;;;;;;5045800;28;20186;-67
2021/05/03 00:34:45;;;;;;;4.03;2.40;;;9.60;50.90;;;;;;5049196;28;20095;-67
2021/05/03 00:37:11;;;;;;;3.65;2.05;;;9.50;51.20;;;;;;5049514;28;20142;-68
2021/05/03 00:39:38;;;;;;;4.32;2.67;;;9.60;51.40;;;;;;5043653;28;20041;-68
2021/05/03 00:42:05;;;;;;;4.10;2.35;;;9.70;51.00;;;;;;5044012;28;20128;-68
2021/05/03 00:44:31;;;;;;;5.13;2.70;;;9.70;51.00;;;;;;5052239;28;20080;-68
2021/05/03 00:46:59;;;;;;;5.13;2.60;;;9.60;50.90;;;;;;5050572;28;20143;-68
2021/05/03 00:49:28;;;;;;;6.35;2.50;;;9.40;51.10;;;;;;5054254;28;20045;-68
2021/05/03 00:51:55;;;;;;;6.97;2.70;;;9.50;51.40;;;;;;5049839;28;20649;-68
2021/05/03 00:54:21;;;;;;;4.68;2.58;;;9.60;51.30;;;;;;5048746;28;20053;-68
2021/05/03 00:56:48;;;;;;;3.90;2.50;;;9.40;51.20;;;;;;5044103;28;20494;-67
2021/05/03 00:59:14;;;;;;;3.60;2.20;;;9.50;51.60;;;;;;5046500;28;20041;-68
2021/05/03 01:01:41;;;;;;;5.32;2.10;;;9.50;51.60;;;;;;5045984;28;20049;-67
2021/05/03 01:04:07;;;;;;;6.10;2.58;;;9.60;51.40;;;;;;5048388;28;20074;-67
2021/05/03 01:06:34;;;;;;;6.55;2.47;;;9.60;51.10;;;;;;5050007;28;20555;-66
2021/05/03 01:09:00;;;;;;;3.97;2.40;;;9.60;51.30;;;;;;5046289;28;20533;-67
2021/05/03 01:11:26;;;;;;;4.25;2.53;;;9.50;51.40;;;;;;5045744;28;20126;-68
2021/05/03 01:13:52;;;;;;;4.57;2.40;;;9.40;51.70;;;;;;5043618;28;20049;-68
2021/05/03 01:16:19;;;;;;;4.60;2.53;;;9.30;51.60;;;;;;5047563;28;20546;-68
2021/05/03 01:18:48;;;;;;;6.97;2.58;;;9.20;51.60;;;;;;5045613;28;20055;-68
2021/05/03 01:21:27;;;;;;;6.25;2.47;;;9.20;51.70;;;;;;5045212;28;20072;-67
2021/05/03 01:23:54;;;;;;;5.88;2.50;;;9.20;51.80;;;;;;5045227;28;20083;-68
2021/05/03 01:26:21;;;;;;;4.68;2.38;;;9.20;51.60;;;;;;5048297;28;20045;-68
2021/05/03 01:28:48;;;;;;;3.72;2.45;;;9.20;51.40;;;;;;5050298;28;20053;-67
2021/05/03 01:31:15;;;;;;;4.03;3.03;;;9.20;51.70;;;;;;5041150;28;20072;-68
2021/05/03 01:33:41;;;;;;;4.90;2.40;;;9.20;51.60;;;;;;5039597;28;20102;-67
2021/05/03 01:36:08;;;;;;;4.32;2.65;;;9.20;51.50;;;;;;5051533;28;20116;-67
2021/05/03 01:38:35;;;;;;;4.80;2.60;;;9.10;51.30;;;;;;5051059;28;20431;-66
2021/05/03 01:41:01;;;;;;;7.82;2.47;;;9.20;51.70;;;;;;5047116;28;20076;-68
2021/05/03 01:43:28;;;;;;;3.28;2.30;;;9.20;51.80;;;;;;5048375;28;20051;-66
2021/05/03 01:45:57;;;;;;;4.55;2.58;;;9.20;52.10;;;;;;5047577;28;20091;-66
2021/05/03 01:48:29;;;;;;;7.47;2.80;;;9.30;52.30;;;;;;5051124;28;20072;-68
2021/05/03 01:50:56;;;;;;;4.57;2.80;;;9.60;52.20;;;;;;5053876;28;20080;-68
2021/05/03 01:53:23;;;;;;;6.45;3.05;;;9.80;51.90;;;;;;5046131;28;20455;-66
2021/05/03 01:55:52;;;;;;;5.28;2.83;;;9.80;52.40;;;;;;5047476;28;20121;-67
2021/05/03 01:58:19;;;;;;;8.65;2.63;;;9.80;52.00;;;;;;5049388;28;20552;-67
2021/05/03 02:00:45;;;;;;;3.88;2.72;;;9.80;52.40;;;;;;5045700;28;20130;-67
2021/05/03 02:03:27;;;;;;;7.45;3.15;;;9.80;52.50;;;;;;5046899;28;20502;-68
2021/05/03 02:05:55;;;;;;;7.55;3.13;;;9.70;52.90;;;;;;5045849;28;20106;-67
2021/05/03 02:08:21;;;;;;;5.50;3.08;;;9.60;53.90;;;;;;5047630;28;20053;-67
2021/05/03 02:10:50;;;;;;;5.82;2.80;;;9.50;53.60;;;;;;5042390;28;20132;-67
2021/05/03 02:13:18;;;;;;;6.43;3.10;;;9.20;54.80;;;;;;5046016;28;20084;-67
2021/05/03 02:15:47;;;;;;;4.50;2.90;;;9.00;55.40;;;;;;5047725;28;20064;-67
2021/05/03 02:18:14;;;;;;;7.07;3.00;;;8.90;55.70;;;;;;5047387;28;20123;-67
2021/05/03 02:20:42;;;;;;;7.97;3.15;;;8.80;55.80;;;;;;5045473;28;20077;-67
2021/05/03 02:23:11;;;;;;;5.55;3.30;;;8.80;56.10;;;;;;5055831;28;20041;-67
2021/05/03 02:25:38;;;;;;;6.50;3.40;;;8.80;56.30;;;;;;5045910;28;20114;-67
2021/05/03 02:28:07;;;;;;;7.45;3.45;;;8.80;56.40;;;;;;5044640;28;20080;-67
2021/05/03 02:30:33;;;;;;;5.70;3.50;;;8.80;56.70;;;;;;5047007;28;20048;-66
2021/05/03 02:33:00;;;;;;;5.32;3.50;;;8.70;56.90;;;;;;5045642;28;20139;-66
2021/05/03 02:35:29;;;;;;;8.60;3.58;;;8.70;57.30;;;;;;5049779;28;20392;-68
2021/05/03 02:37:58;;;;;;;6.00;3.58;;;8.70;57.80;;;;;;5047145;28;20121;-66
2021/05/03 02:40:24;;;;;;;6.20;3.95;;;8.50;58.20;;;;;;5047884;28;20644;-66
2021/05/03 02:42:53;;;;;;;7.95;3.15;;;8.60;58.10;;;;;;5048781;28;20768;-68
2021/05/03 02:45:21;;;;;;;5.43;3.50;;;8.50;58.60;;;;;;5055546;28;20154;-67
2021/05/03 02:47:48;;;;;;;10.23;3.38;;;8.60;58.50;;;;;;5049376;28;20045;-66
2021/05/03 02:50:16;;;;;;;7.18;3.42;;;8.80;58.30;;;;;;5047211;28;20403;-68
2021/05/03 02:52:46;;;;;;;5.70;3.55;;;8.80;58.10;;;;;;5046085;28;20060;-67
2021/05/03 02:55:13;;;;;;;8.45;3.70;;;9.00;58.10;;;;;;5048655;28;20072;-67
2021/05/03 02:57:40;;;;;;;5.78;3.30;;;9.10;58.00;;;;;;5051903;28;20542;-68
2021/05/03 03:00:10;;;;;;;8.00;3.75;;;9.20;57.80;;;;;;5051029;28;20051;-67
2021/05/03 03:02:36;;;;;;;6.78;3.53;;;9.10;57.90;;;;;;5050820;28;20091;-67
2021/05/03 03:05:04;;;;;;;6.13;3.70;;;9.10;57.90;;;;;;5052399;28;20046;-66
2021/05/03 03:07:30;;;;;;;7.97;3.58;;;9.10;58.10;;;;;;5050258;28;20076;-66
2021/05/03 03:09:57;;;;;;;6.32;3.88;;;9.10;58.20;;;;;;5049158;28;20552;-67
2021/05/03 03:12:24;;;;;;;6.82;3.55;;;9.10;58.40;;;;;;5051754;28;20119;-66
2021/05/03 03:14:50;;;;;;;9.15;3.88;;;9.10;58.30;;;;;;5048077;28;20083;-67
2021/05/03 03:17:17;;;;;;;8.50;3.83;;;9.10;58.90;;;;;;5051229;28;20079;-67
2021/05/03 03:19:43;;;;;;;5.13;3.88;;;8.80;59.00;;;;;;5046472;28;20079;-68
2021/05/03 03:22:10;;;;;;;8.45;4.50;;;8.60;59.10;;;;;;5049504;28;20087;-68
2021/05/03 03:24:37;;;;;;;5.20;3.83;;;8.70;59.30;;;;;;5049153;28;20081;-68
2021/05/03 03:27:04;;;;;;;10.07;4.22;;;8.50;59.40;;;;;;5050335;28;20049;-68
2021/05/03 03:29:30;;;;;;;6.20;4.07;;;8.70;59.20;;;;;;5051097;28;20045;-67
2021/05/03 03:31:57;;;;;;;8.02;4.53;;;8.60;59.20;;;;;;5051724;28;20110;-67
2021/05/03 03:34:23;;;;;;;7.32;4.07;;;8.70;59.30;;;;;;5047562;28;20060;-68
2021/05/03 03:36:50;;;;;;;7.53;4.13;;;8.60;58.60;;;;;;5050595;28;20053;-67
2021/05/03 03:39:16;;;;;;;7.60;4.22;;;8.60;58.90;;;;;;5049597;28;20122;-67
2021/05/03 03:41:42;;;;;;;8.43;4.22;;;8.60;59.00;;;;;;5050993;28;20124;-67
2021/05/03 03:44:09;;;;;;;7.28;4.18;;;8.60;59.00;;;;;;5049671;28;20077;-68
2021/05/03 03:46:36;;;;;;;6.10;3.72;;;8.50;59.20;;;;;;5048002;28;20045;-68
2021/05/03 03:49:03;;;;;;;8.50;4.28;;;8.70;59.80;;;;;;5048212;28;20079;-68
2021/05/03 03:51:29;;;;;;;6.70;4.03;;;8.50;59.60;;;;;;5070987;28;20098;-67
2021/05/03 03:53:56;;;;;;;10.88;4.28;;;8.50;59.50;;;;;;5051178;28;20103;-67
2021/05/03 03:56:22;;;;;;;10.63;4.25;;;8.50;59.80;;;;;;5049441;28;20080;-66
2021/05/03 03:58:50;;;;;;;8.23;3.63;;;8.70;59.50;;;;;;5049568;28;20068;-66
2021/05/03 04:01:16;;;;;;;8.27;4.22;;;8.60;59.60;;;;;;5047815;28;20081;-67
2021/05/03 04:03:47;;;;;;;7.30;4.40;;;8.90;59.40;;;;;;5048931;28;20665;-68
2021/05/03 04:06:26;;;;;;;8.85;4.25;;;8.90;59.50;;;;;;5049815;28;20087;-68
2021/05/03 04:25:17;;;;;;;8.75;4.53;;;9.00;60.50;;;;;;5044392;28;20144;-67
2021/05/03 04:27:22;;;;;;;7.43;4.00;;;8.90;60.70;;;;;;5036252;28;20658;-68
2021/05/03 04:29:48;;;;;;;8.70;4.65;;;9.00;60.90;;;;;;5048540;28;20136;-67
2021/05/03 04:32:14;;;;;;;6.78;4.55;;;8.90;61.10;;;;;;5046411;28;20076;-66
2021/05/03 04:34:41;;;;;;;7.03;4.60;;;8.90;60.80;;;;;;5052565;28;20104;-66
2021/05/03 04:37:07;;;;;;;7.50;4.63;;;8.90;60.60;;;;;;5048927;28;20083;-67
2021/05/03 04:39:34;;;;;;;7.63;4.68;;;8.90;60.40;;;;;;5054504;28;20076;-67
2021/05/03 04:42:00;;;;;;;12.07;4.65;;;9.00;60.00;;;;;;5047993;28;20049;-67
2021/05/03 04:44:27;;;;;;;11.48;4.22;;;8.90;60.00;;;;;;5043150;28;20045;-68
2021/05/03 04:46:53;;;;;;;6.50;4.00;;;8.90;60.30;;;;;;5048661;28;20057;-68
2021/05/03 04:49:19;;;;;;;12.48;5.07;;;8.70;60.50;;;;;;5043240;28;20124;-68
2021/05/03 04:51:46;;;;;;;10.35;4.43;;;8.70;61.00;;;;;;5044106;28;20076;-69
2021/05/03 04:54:12;;;;;;;9.75;4.80;;;8.90;60.70;;;;;;5046056;28;20061;-68
2021/05/03 04:56:38;;;;;;;8.77;4.70;;;8.90;60.10;;;;;;5047315;28;20072;-68
2021/05/03 04:59:04;;;;;;;8.70;4.28;;;8.90;60.40;;;;;;5046774;28;20045;-68
2021/05/03 05:01:31;;;;;;;7.68;5.18;;;8.90;60.40;;;;;;5050751;28;20114;-67
2021/05/03 05:03:57;;;;;;;11.45;4.78;;;8.90;60.90;;;;;;5044964;28;20041;-68
2021/05/03 05:06:23;;;;;;;9.70;4.88;;;8.80;61.30;;;;;;5044332;28;20053;-66
2021/05/03 05:08:50;;;;;;;8.60;5.15;;;8.90;61.10;;;;;;5047851;28;20110;-67
2021/05/03 05:11:16;;;;;;;8.82;5.35;;;9.10;60.90;;;;;;5050421;28;20515;-67
2021/05/03 05:13:42;;;;;;;8.07;5.60;;;9.30;60.40;;;;;;5041180;28;20444;-67
2021/05/03 05:16:09;;;;;;;8.77;4.85;;;9.20;60.70;;;;;;5048806;28;20081;-67
2021/05/03 05:18:36;;;;;;;11.23;5.57;;;9.30;60.80;;;;;;5042963;28;20073;-67
2021/05/03 05:21:03;;;;;;;10.43;5.97;;;9.20;61.10;;;;;;5048640;28;20068;-66
2021/05/03 05:23:29;;;;;;;12.30;6.13;;;9.00;62.10;;;;;;5047210;28;20099;-67
2021/05/03 05:25:56;;;;;;;7.40;5.43;;;8.90;63.30;;;;;;5047899;28;20163;-68
2021/05/03 05:28:22;;;;;;;10.52;5.72;;;8.80;64.20;;;;;;5047589;28;20432;-68
2021/05/03 05:30:48;;;;;;;12.35;5.68;;;8.80;64.70;;;;;;5048219;28;20428;-67
2021/05/03 05:33:15;;;;;;;12.23;6.15;;;9.10;64.40;;;;;;5045301;28;20068;-68
2021/05/03 05:35:41;;;;;;;14.70;6.97;;;9.20;64.20;;;;;;5060339;28;20072;-67
2021/05/03 05:38:07;;;;;;;10.30;6.30;;;9.20;63.70;;;;;;5042964;28;20041;-68
2021/05/03 05:40:33;;;;;;;12.02;6.43;;;9.30;63.70;;;;;;5046810;28;20479;-68
2021/05/03 05:43:04;;;;;;;8.95;6.05;;;9.40;63.50;;;;;;5045556;28;20111;-68
2021/05/03 05:45:30;;;;;;;;;;;9.50;62.90;;;;;;5046861;28;20528;-69
2021/05/03 05:47:57;;;;;;;9.48;5.82;;;9.30;63.00;;;;;;5048504;28;19927;-67
2021/05/03 05:50:23;;;;;;;11.52;6.30;;;9.60;63.00;;;;;;5042393;28;20045;-67
2021/05/03 05:52:50;;;;;;;11.60;6.43;;;9.60;62.10;;;;;;5045711;28;20119;-68
2021/05/03 05:55:16;;;;;;;12.40;6.13;;;9.40;61.80;;;;;;5044364;28;20174;-69
2021/05/03 05:57:43;;;;;;;11.90;6.60;;;9.40;61.50;;;;;;5049413;28;20327;-69
2021/05/03 06:00:09;;;;;;;11.88;5.80;;;9.50;60.90;;;;;;5035360;28;20501;-69
2021/05/03 06:02:36;;;;;;;12.32;6.15;;;9.80;60.40;;;;;;5029901;28;20111;-67
2021/05/03 06:05:03;;;;;;;11.68;6.57;;;9.50;61.20;;;;;;5031192;28;20057;-68
2021/05/03 06:07:30;;;;;;;11.30;6.22;;;9.40;61.50;;;;;;5030988;28;20049;-68
2021/05/03 06:09:57;;;;;;;13.52;6.18;;;9.50;61.20;;;;;;5030595;28;20769;-69
2021/05/03 06:12:23;;;;;;;12.40;6.05;;;9.80;61.20;;;;;;5028519;28;20154;-70
2021/05/03 06:14:51;;;;;;;9.48;6.38;;;9.70;61.10;;;;;;5030212;28;20061;-69
2021/05/03 06:17:17;;;;;;;11.18;6.15;;;9.50;61.00;;;;;;5030666;28;20044;-68
2021/05/03 06:19:44;;;;;;;9.60;6.45;;;9.50;60.70;;;;;;5029023;28;20065;-70
2021/05/03 06:22:11;;;;;;;8.75;5.88;;;9.70;62.60;;;;;;5030195;28;20049;-69
2021/05/03 06:24:39;;;;;;;11.77;6.13;;;9.80;62.60;;;;;;5030499;28;20061;-69
2021/05/03 06:27:05;;;;;;;14.10;7.43;;;9.90;62.50;;;;;;5030476;28;20085;-68
2021/05/03 06:29:32;;;;;;;15.88;6.47;;;9.70;63.20;;;;;;5029928;28;20122;-68
2021/05/03 06:31:59;;;;;;;15.93;6.70;;;9.90;62.70;;;;;;5035773;28;20504;-68
2021/05/03 06:34:30;;;;;;;12.65;7.05;;;9.90;62.90;;;;;;5036182;28;20487;-68
2021/05/03 06:36:57;;;;;;;14.45;7.07;;;9.90;63.00;;;;;;5037180;28;20618;-69
2021/05/03 06:39:25;;;;;;;15.57;7.20;;;9.80;63.00;;;;;;5037003;28;20053;-69
2021/05/03 06:41:52;;;;;;;19.33;8.05;;;9.60;63.50;;;;;;5037463;28;20151;-70
2021/05/03 06:44:19;;;;;;;13.63;6.95;;;9.90;63.00;;;;;;5034837;28;20080;-70
2021/05/03 06:46:46;;;;;;;12.38;7.03;;;10.30;61.00;;;;;;5037982;28;20049;-68
2021/05/03 06:49:12;;;;;;;14.70;6.97;;;10.70;60.10;;;;;;5034497;28;20397;-69
2021/05/03 06:51:39;;;;;;;13.45;6.65;;;10.90;59.50;;;;;;5037486;28;20057;-69
2021/05/03 06:54:05;;;;;;;8.43;5.15;;;10.90;59.30;;;;;;5034926;28;20134;-68
2021/05/03 06:56:31;;;;;;;10.27;5.43;;;11.50;57.90;;;;;;5036573;28;20141;-68
2021/05/03 06:58:58;;;;;;;8.93;5.50;;;11.60;57.40;;;;;;5035427;28;20454;-69
2021/05/03 07:01:25;;;;;;;10.50;5.30;;;12.20;56.80;;;;;;5036785;28;20119;-67
2021/05/03 07:03:58;;;;;;;12.68;4.93;;;12.10;55.70;;;;;;5035826;28;20045;-68
2021/05/03 07:06:25;;;;;;;7.30;4.95;;;11.70;56.90;;;;;;5037342;28;20057;-68
2021/05/03 07:08:52;;;;;;;12.55;5.38;;;11.30;57.10;;;;;;5035540;28;20486;-70
2021/05/03 07:11:21;;;;;;;8.65;5.05;;;11.20;57.60;;;;;;5037377;28;20049;-69
2021/05/03 07:13:47;;;;;;;9.63;5.30;;;11.60;56.80;;;;;;5036176;28;20049;-67
2021/05/03 07:16:14;;;;;;;9.05;5.22;;;12.10;56.20;;;;;;5036785;28;20164;-69
2021/05/03 07:18:40;;;;;;;8.50;5.30;;;12.00;55.20;;;;;;5034745;28;20077;-68
2021/05/03 07:21:07;;;;;;;9.98;4.90;;;11.50;55.40;;;;;;5036144;28;20136;-68
2021/05/03 07:23:33;;;;;;;9.73;5.07;;;10.90;55.70;;;;;;5034339;28;20079;-68
2021/05/03 07:26:05;;;;;;;6.90;4.70;;;11.30;55.70;;;;;;5037902;28;20057;-68
2021/05/03 07:28:31;;;;;;;9.48;4.97;;;12.30;54.20;;;;;;5035009;28;20053;-67
2021/05/03 07:30:58;;;;;;;7.55;4.65;;;12.90;53.50;;;;;;5034733;28;20120;-68
2021/05/03 07:33:26;;;;;;;10.38;5.22;;;13.90;51.10;;;;;;5034209;28;20184;-67
2021/05/03 07:35:54;;;;;;;7.85;4.40;;;12.50;50.90;;;;;;5034082;28;20116;-69
2021/05/03 07:38:20;;;;;;;9.55;4.90;;;12.60;51.10;;;;;;5034511;28;20515;-68
2021/05/03 07:40:47;;;;;;;9.00;4.50;;;12.30;51.70;;;;;;5036010;28;20053;-67
2021/05/03 07:43:13;;;;;;;8.52;4.65;;;11.90;51.40;;;;;;5032164;28;20076;-67
2021/05/03 07:45:40;;;;;;;7.43;4.35;;;12.20;51.60;;;;;;5034270;28;20490;-68
2021/05/03 07:48:06;;;;;;;23.40;5.82;;;12.60;50.40;;;;;;5033456;28;20159;-67
2021/05/03 07:50:33;;;;;;;16.90;6.30;;;12.50;50.30;;;;;;5033033;28;20057;-68
2021/05/03 07:52:59;;;;;;;7.90;4.65;;;12.10;50.90;;;;;;5033224;28;20136;-67
2021/05/03 07:55:26;;;;;;;15.57;5.25;;;11.50;52.10;;;;;;5033536;28;20057;-68
2021/05/03 07:57:53;;;;;;;9.48;5.32;;;11.60;52.80;;;;;;5032180;28;20413;-69
2021/05/03 08:00:20;;;;;;;7.38;4.88;;;11.90;52.00;;;;;;5033179;28;20111;-68
2021/05/03 08:02:46;;;;;;;9.15;5.05;;;12.20;51.30;;;;;;5032414;28;20049;-68
2021/05/03 08:05:13;;;;;;;8.32;5.25;;;12.50;50.70;;;;;;5031343;28;20048;-69
2021/05/03 08:07:39;;;;;;;8.20;5.32;;;11.90;49.70;;;;;;5032552;28;20048;-70
2021/05/03 08:10:10;;;;;;;9.15;4.55;;;12.40;50.00;;;;;;5032377;28;20393;-69
2021/05/03 08:12:36;;;;;;;7.70;5.40;;;12.40;48.90;;;;;;5032815;28;20416;-72
2021/05/03 08:15:11;;;;;;;7.18;4.78;;;12.40;48.60;;;;;;5032258;28;20057;-71
2021/05/03 08:17:39;;;;;;;11.02;5.85;;;11.80;49.60;;;;;;5033026;28;20049;-68
2021/05/03 08:20:07;;;;;;;10.05;4.90;;;12.50;48.60;;;;;;5031854;28;20063;-68
2021/05/03 08:22:34;;;;;;;8.23;5.70;;;13.00;48.60;;;;;;5050766;28;20480;-68
2021/05/03 08:25:00;;;;;;;10.32;6.03;;;12.50;47.60;;;;;;5029636;28;20122;-68
2021/05/03 08:27:27;;;;;;;9.32;5.85;;;12.40;48.00;;;;;;5032465;28;20516;-69
2021/05/03 08:29:53;;;;;;;15.98;5.93;;;12.60;47.40;;;;;;5032214;28;20476;-70
2021/05/03 08:32:19;;;;;;;11.73;6.40;;;12.90;48.20;;;;;;5032399;28;20180;-68
2021/05/03 08:34:46;;;;;;;8.75;5.85;;;12.50;47.10;;;;;;5032445;28;20373;-68
2021/05/03 08:37:13;;;;;;;11.13;6.03;;;12.40;45.90;;;;;;5032574;28;20052;-70
2021/05/03 08:39:39;;;;;;;9.43;5.70;;;12.30;47.30;;;;;;5032720;28;20752;-70
2021/05/03 08:42:08;;;;;;;9.30;5.88;;;12.60;46.50;;;;;;5032096;28;20056;-68
2021/05/03 08:44:36;;;;;;;12.23;5.40;;;12.70;46.50;;;;;;5031095;28;20056;-67
2021/05/03 08:47:03;;;;;;;10.13;5.78;;;12.70;47.00;;;;;;5032880;28;20679;-70
2021/05/03 08:52:43;;;;;;;10.20;5.10;;;12.40;47.00;;;;;;4988060;28;20514;-69
2021/05/03 08:55:14;;;;;;;9.45;5.22;;;12.80;46.70;;;;;;5025261;28;20072;-68
2021/05/03 08:57:41;;;;;;;9.20;5.45;;;13.10;46.70;;;;;;5032491;28;20045;-67
2021/05/03 09:00:12;;;;;;;11.07;5.78;;;13.30;46.50;;;;;;5031436;28;20144;-68
2021/05/03 09:02:48;;;;;;;10.40;5.97;;;13.20;46.40;;;;;;5041604;28;20172;-69
2021/05/03 09:05:16;;;;;;;12.07;5.07;;;13.20;46.50;;;;;;5042337;28;20072;-71
2021/05/03 09:07:50;;;;;;;8.73;5.38;;;13.60;45.30;;;;;;5042378;28;20080;-69
2021/05/03 09:10:19;;;;;;;13.63;5.65;;;13.80;45.50;;;;;;5042939;28;20135;-69
2021/05/03 09:12:46;;;;;;;11.45;5.07;;;14.50;44.30;;;;;;5042222;28;20411;-70
2021/05/03 09:15:18;;;;;;;7.50;5.30;;;14.80;44.20;;;;;;5042801;28;20057;-71
2021/05/03 09:17:47;;;;;;;9.48;5.43;;;13.50;44.60;;;;;;5042936;28;20432;-70
2021/05/03 09:20:22;;;;;;;10.32;4.90;;;12.90;45.60;;;;;;5041586;28;20145;-69
2021/05/03 09:25:26;;;;;;;14.05;6.03;;;13.00;45.50;;;;;;5038085;28;20084;-70
2021/05/03 09:28:01;;;;;;;8.10;5.10;;;13.00;46.50;;;;;;5041561;28;20056;-70
2021/05/03 09:30:32;;;;;;;8.05;5.25;;;13.70;46.50;;;;;;5042382;28;20052;-70
2021/05/03 09:33:11;;;;;;;9.15;5.40;;;13.40;45.90;;;;;;5042948;28;20682;-69
2021/05/03 09:35:52;;;;;;;5.43;4.40;;;14.00;45.20;;;;;;5043188;28;20068;-71
2021/05/03 09:38:32;;;;;;;9.98;4.95;;;14.30;44.00;;;;;;5050810;28;20140;-69
2021/05/03 09:41:09;;;;;;;9.65;4.97;;;14.20;44.20;;;;;;5044804;28;20056;-69
2021/05/03 09:43:37;;;;;;;8.38;4.57;;;13.40;44.70;;;;;;5042199;28;20076;-70
2021/05/03 09:46:27;;;;;;;6.97;4.65;;;13.20;45.50;;;;;;5046014;28;20149;-71
2021/05/03 09:49:01;;;;;;;6.97;4.90;;;13.10;46.00;;;;;;5046028;28;20122;-79
2021/05/03 09:51:56;;;;;;;17.70;5.40;;;13.30;46.20;;;;;;5046134;28;20154;-79
2021/05/03 09:54:27;;;;;;;8.27;4.90;;;12.90;47.20;;;;;;5045484;28;20048;-80
2021/05/03 09:57:09;;;;;;;11.27;4.60;;;12.90;47.00;;;;;;5051710;28;20472;-83
2021/05/03 09:59:39;;;;;;;12.43;4.78;;;13.10;46.30;;;;;;5051498;28;20041;-86
2021/05/03 10:02:29;;;;;;;5.47;4.18;;;13.00;45.10;;;;;;5049668;28;20051;-82
2021/05/03 10:05:11;;;;;;;7.32;5.00;;;13.70;44.60;;;;;;5048638;28;20072;-84
2021/05/03 10:07:39;;;;;;;8.65;4.65;;;15.10;42.80;;;;;;5051493;28;20722;-84
2021/05/03 10:12:37;;;;;;;8.02;4.75;;;14.20;44.00;;;;;;5046161;28;20084;-83
2021/05/03 10:15:12;;;;;;;9.80;5.10;;;13.80;44.20;;;;;;5049343;28;20053;-84
2021/05/03 10:17:40;;;;;;;9.25;4.70;;;13.80;45.10;;;;;;5049527;28;20044;-84
2021/05/03 10:20:10;;;;;;;10.27;4.32;;;13.70;44.30;;;;;;5049218;28;20060;-84
2021/05/03 10:22:37;;;;;;;8.55;4.57;;;13.80;43.90;;;;;;5051031;28;20407;-84
2021/05/03 10:25:10;;;;;;;9.18;4.65;;;13.90;44.00;;;;;;5041181;28;20046;-85
2021/05/03 10:27:40;;;;;;;9.50;4.57;;;13.90;43.40;;;;;;5048775;28;20240;-84
2021/05/03 10:30:24;;;;;;;5.60;4.32;;;13.80;42.50;;;;;;5049457;28;20053;-85
2021/05/03 10:33:09;;;;;;;5.75;4.32;;;13.70;43.60;;;;;;5047156;28;20146;-83
2021/05/03 10:35:44;;;;;;;7.70;4.22;;;13.80;42.80;;;;;;5050853;28;20049;-85
2021/05/03 10:38:43;;;;;;;5.57;3.83;;;13.80;42.00;;;;;;5079077;28;20048;-85
2021/05/03 10:41:26;;;;;;;7.00;3.67;;;13.90;41.40;;;;;;5011422;28;20075;-87
2021/05/03 10:44:09;;;;;;;6.47;3.78;;;14.20;41.40;;;;;;5047463;28;20065;-86
2021/05/03 10:49:12;;;;;;;10.13;4.97;;;14.90;40.30;;;;;;5056397;28;20129;-90
2021/05/03 10:54:28;;;;;;;7.78;4.28;;;15.90;39.20;;;;;;5056999;28;20178;-85
2021/05/03 10:56:57;;;;;;;9.77;4.05;;;15.80;38.50;;;;;;5053623;28;20041;-85
2021/05/03 10:59:40;;;;;;;7.60;3.63;;;14.90;39.20;;;;;;5049973;28;20053;-86
2021/05/03 11:02:10;;;;;;;7.28;3.75;;;14.80;40.00;;;;;;5050139;28;20045;-84
2021/05/03 11:04:41;;;;;;;8.25;3.88;;;14.60;39.50;;;;;;5042149;28;20101;-83
2021/05/03 11:07:09;;;;;;;5.00;3.40;;;14.70;39.80;;;;;;5046409;28;20045;-83
2021/05/03 11:09:41;;;;;;;5.97;3.80;;;14.60;39.90;;;;;;5037498;28;20054;-79
2021/05/03 11:12:12;;;;;;;4.68;3.38;;;14.60;40.30;;;;;;5036833;28;20696;-80
2021/05/03 11:15:20;;;;;;;7.45;3.60;;;14.30;39.50;;;;;;5046147;28;20063;-81
2021/05/03 11:18:18;;;;;;;3.63;3.00;;;14.60;39.60;;;;;;5052236;28;20051;-81
2021/05/03 11:21:08;;;;;;;5.32;3.30;;;15.10;38.50;;;;;;5048529;28;20052;-86
2021/05/03 11:23:37;;;;;;;7.43;3.55;;;15.70;38.50;;;;;;5049278;28;20045;-77
2021/05/03 11:26:04;;;;;;;3.85;2.80;;;15.50;38.80;;;;;;5048252;28;20048;-77
2021/05/03 11:28:36;;;;;;;7.05;3.30;;;15.20;39.10;;;;;;5047791;28;20049;-79
2021/05/03 11:31:14;;;;;;;6.30;3.47;;;15.70;39.70;;;;;;5048517;28;20136;-78
2021/05/03 11:33:49;;;;;;;6.88;3.22;;;16.50;37.20;;;;;;5051877;28;20372;-80
2021/05/03 11:36:27;;;;;;;7.30;3.38;;;16.70;36.80;;;;;;5060363;28;20063;-80
2021/05/03 11:39:00;;;;;;;5.28;2.97;;;17.00;36.00;;;;;;5050287;28;20049;-80
2021/05/03 11:41:47;;;;;;;6.50;2.80;;;17.00;36.70;;;;;;5051496;28;20452;-80
2021/05/03 11:46:46;;;;;;;6.18;2.53;;;16.40;33.80;;;;;;5052331;28;20642;-78
2021/05/03 11:49:13;;;;;;;5.00;2.65;;;16.60;35.90;;;;;;5045305;28;20051;-78
2021/05/03 11:51:55;;;;;;;3.55;2.72;;;16.60;36.10;;;;;;5052278;28;20106;-80
2021/05/03 11:54:33;;;;;;;2.60;2.33;;;16.30;35.90;;;;;;5041787;28;20069;-79
2021/05/03 11:57:06;;;;;;;2.95;2.30;;;16.50;34.70;;;;;;5051883;28;20037;-78
2021/05/03 11:59:33;;;;;;;2.70;2.10;;;16.40;35.50;;;;;;5050263;28;20458;-78
2021/05/03 12:02:12;;;;;;;7.95;2.70;;;16.30;34.50;;;;;;5061814;28;20053;-80
2021/05/03 12:04:43;;;;;;;4.38;2.38;;;16.10;35.50;;;;;;5059527;28;20177;-80
2021/05/03 12:07:16;;;;;;;;;;;16.10;36.20;;;;;;5046958;28;20053;-81
2021/05/03 12:09:44;;;;;;;8.88;3.38;;;17.30;34.30;;;;;;5039337;28;19929;-77
2021/05/03 12:12:10;;;;;;;6.05;3.00;;;17.10;33.80;;;;;;5048475;28;20049;-79
2021/05/03 12:14:44;;;;;;;4.82;2.83;;;16.40;34.80;;;;;;5047705;28;20064;-82
2021/05/03 12:17:31;;;;;;;4.28;2.70;;;16.20;34.40;;;;;;5048283;28;20058;-82
2021/05/03 12:20:10;;;;;;;3.67;2.22;;;16.00;34.50;;;;;;5049489;28;20139;-78
2021/05/03 12:22:38;;;;;;;3.38;2.00;;;16.30;34.40;;;;;;5046743;28;20055;-78
2021/05/03 12:25:10;;;;;;;5.05;2.45;;;18.20;32.60;;;;;;5047878;28;20447;-77
2021/05/03 12:27:38;;;;;;;3.88;2.63;;;21.60;30.50;;;;;;5047472;28;20068;-77
2021/05/03 12:30:06;;;;;;;2.90;2.25;;;21.00;29.60;;;;;;5043503;28;20045;-78
2021/05/03 12:32:35;;;;;;;4.60;2.63;;;20.90;32.10;;;;;;5031275;28;20504;-79
2021/05/03 12:35:09;;;;;;;4.60;2.53;;;17.40;32.30;;;;;;5048815;28;20266;-80
2021/05/03 12:37:36;;;;;;;5.90;3.03;;;17.30;33.90;;;;;;5064803;28;20064;-78
2021/05/03 12:40:16;;;;;;;3.90;2.53;;;20.20;32.90;;;;;;5045609;28;20170;-79
2021/05/03 12:42:44;;;;;;;3.30;2.60;;;19.20;31.40;;;;;;5044573;28;20065;-79
2021/05/03 12:54:12;;;;;;;3.00;2.10;;;22.20;29.10;;;;;;5047950;28;20056;-80
2021/05/03 13:05:10;;;;;;;5.95;2.20;;;17.00;32.70;;;;;;5030247;28;20094;-78
2021/05/03 13:07:49;;;;;;;2.30;1.88;;;17.20;32.60;;;;;;5038591;28;20092;-77
2021/05/03 13:29:14;;;;;;;4.40;1.95;;;17.30;31.10;;;;;;5037537;28;20064;-79
2021/05/03 13:31:45;;;;;;;2.33;1.77;;;17.60;31.60;;;;;;5033563;28;20775;-79
2021/05/03 13:34:17;;;;;;;3.63;2.40;;;17.20;31.70;;;;;;5038258;28;20130;-80
2021/05/03 13:36:46;;;;;;;4.07;2.17;;;17.90;31.60;;;;;;5035684;28;20111;-79
2021/05/03 13:39:16;;;;;;;3.80;1.55;;;18.20;31.00;;;;;;5031551;28;20045;-79
2021/05/03 13:41:44;;;;;;;2.65;1.80;;;16.90;31.20;;;;;;5031034;28;20053;-79
2021/05/03 13:44:14;;;;;;;3.67;1.95;;;18.00;31.60;;;;;;5040650;28;20049;-80
2021/05/03 13:46:41;;;;;;;5.55;2.03;;;19.20;30.10;;;;;;5053311;28;20068;-79
2021/05/03 13:49:12;;;;;;;5.75;3.10;;;18.80;31.30;;;;;;5042416;28;20053;-78
2021/05/03 13:51:41;;;;;;;2.42;1.90;;;18.40;30.20;;;;;;5035779;28;20159;-79
2021/05/03 13:54:08;;;;;;;3.90;2.13;;;18.30;31.70;;;;;;5032235;28;20147;-79
2021/05/03 13:56:34;;;;;;;7.30;2.92;;;18.10;30.20;;;;;;5035985;28;20048;-78
2021/05/03 13:59:01;;;;;;;17.65;2.58;;;19.00;31.10;;;;;;5039955;28;20136;-79
2021/05/03 14:01:28;;;;;;;3.08;1.77;;;18.60;30.50;;;;;;5034894;28;20448;-79
2021/05/03 14:03:54;;;;;;;2.83;1.80;;;17.80;30.10;;;;;;5040587;28;20049;-78
2021/05/03 14:06:22;;;;;;;3.40;1.77;;;17.30;31.30;;;;;;5033436;28;20107;-79
2021/05/03 14:08:48;;;;;;;8.75;1.70;;;17.10;31.60;;;;;;5038931;28;20061;-78